Detroit, Michigan
Traffic Map
Current Weather Conditions
Detroit, Michigan
Few Clouds
Few Clouds
59°
Feels Like: 59°
Wind Chill: 59° Ceiling: Unl
Heat Index: 59° Visibility: 12mi
Dew Point: 57° Wind: 2mph
Humidity: 94% Direction: 160° (SSE)
Pressure: 29.93in Gusts: 0mph
Raw Report DataCYQG 261100Z 16002KT 12SM FEW020CB FEW120 15/14 A2993 RMK CB1AC1 CB TOPS DIST W SLP135
Traffic Incident Summary
Active as of:
Severity:
Category:
InformationThere was an issue retrieving the traffic information for this location. Please try a different location or try again shortly.
Advertisements
Track Severe Weather on mobile